sensor_id;sensor_type;location;lat;lon;timestamp;pressure;altitude;pressure_sealevel;temperature;humidity
30724;BME280;17473;52.286;20.930;2023-05-29T00:00:49;100595.63;;;14.33;61.12
30724;BME280;17473;52.286;20.930;2023-05-29T00:03:18;100596.41;;;14.28;61.65
30724;BME280;17473;52.286;20.930;2023-05-29T00:05:45;100600.66;;;14.19;62.73
30724;BME280;17473;52.286;20.930;2023-05-29T00:08:12;100601.50;;;14.18;62.76
30724;BME280;17473;52.286;20.930;2023-05-29T00:10:39;100590.00;;;14.18;62.41
30724;BME280;17473;52.286;20.930;2023-05-29T00:13:07;100594.41;;;14.17;63.03
30724;BME280;17473;52.286;20.930;2023-05-29T00:15:34;100593.50;;;14.15;63.64
30724;BME280;17473;52.286;20.930;2023-05-29T00:18:02;100595.19;;;14.12;63.84
30724;BME280;17473;52.286;20.930;2023-05-29T00:20:29;100586.19;;;14.06;64.23
30724;BME280;17473;52.286;20.930;2023-05-29T00:22:57;100590.56;;;14.04;64.31
30724;BME280;17473;52.286;20.930;2023-05-29T00:25:24;100584.28;;;13.99;64.40
30724;BME280;17473;52.286;20.930;2023-05-29T00:27:51;100588.28;;;13.82;65.42
30724;BME280;17473;52.286;20.930;2023-05-29T00:30:18;100592.22;;;13.99;64.61
30724;BME280;17473;52.286;20.930;2023-05-29T00:32:45;100588.63;;;13.96;64.77
30724;BME280;17473;52.286;20.930;2023-05-29T00:35:12;100595.75;;;13.98;64.96
30724;BME280;17473;52.286;20.930;2023-05-29T00:37:39;100586.69;;;13.88;65.16
30724;BME280;17473;52.286;20.930;2023-05-29T00:40:07;100597.31;;;13.88;65.41
30724;BME280;17473;52.286;20.930;2023-05-29T00:42:35;100597.34;;;13.91;65.69
30724;BME280;17473;52.286;20.930;2023-05-29T00:45:02;100594.78;;;13.95;65.43
30724;BME280;17473;52.286;20.930;2023-05-29T00:47:30;100602.41;;;13.81;65.86
30724;BME280;17473;52.286;20.930;2023-05-29T00:49:57;100604.97;;;13.76;65.85
30724;BME280;17473;52.286;20.930;2023-05-29T00:52:28;100595.06;;;13.69;66.57
30724;BME280;17473;52.286;20.930;2023-05-29T00:54:55;100591.94;;;13.50;67.22
30724;BME280;17473;52.286;20.930;2023-05-29T00:57:23;100595.66;;;13.57;66.99
30724;BME280;17473;52.286;20.930;2023-05-29T00:59:50;100600.03;;;13.55;66.94
30724;BME280;17473;52.286;20.930;2023-05-29T01:02:18;100588.81;;;13.33;67.46
30724;BME280;17473;52.286;20.930;2023-05-29T01:04:48;100589.19;;;13.13;68.42
30724;BME280;17473;52.286;20.930;2023-05-29T01:07:15;100589.41;;;13.21;68.55
30724;BME280;17473;52.286;20.930;2023-05-29T01:09:42;100586.84;;;13.24;68.68
30724;BME280;17473;52.286;20.930;2023-05-29T01:15:16;100588.28;;;13.11;69.18
30724;BME280;17473;52.286;20.930;2023-05-29T01:18:34;100593.03;;;13.25;68.71
30724;BME280;17473;52.286;20.930;2023-05-29T01:24:21;100586.22;;;13.35;67.82
30724;BME280;17473;52.286;20.930;2023-05-29T01:27:03;100579.94;;;13.31;68.07
30724;BME280;17473;52.286;20.930;2023-05-29T01:32:20;100587.94;;;12.99;69.42
30724;BME280;17473;52.286;20.930;2023-05-29T01:34:48;100582.84;;;13.07;69.22
30724;BME280;17473;52.286;20.930;2023-05-29T01:37:15;100583.75;;;13.09;69.33
30724;BME280;17473;52.286;20.930;2023-05-29T01:39:42;100600.31;;;12.98;70.31
30724;BME280;17473;52.286;20.930;2023-05-29T01:42:10;100592.34;;;12.98;70.12
30724;BME280;17473;52.286;20.930;2023-05-29T01:44:38;100596.59;;;12.93;70.75
30724;BME280;17473;52.286;20.930;2023-05-29T01:47:06;100592.13;;;12.91;70.94
30724;BME280;17473;52.286;20.930;2023-05-29T01:49:33;100596.41;;;12.86;70.47
30724;BME280;17473;52.286;20.930;2023-05-29T01:52:01;100594.50;;;12.80;71.24
30724;BME280;17473;52.286;20.930;2023-05-29T01:54:28;100584.50;;;12.71;71.53
30724;BME280;17473;52.286;20.930;2023-05-29T01:56:55;100593.84;;;12.89;70.64
30724;BME280;17473;52.286;20.930;2023-05-29T01:59:23;100595.63;;;12.90;70.91
30724;BME280;17473;52.286;20.930;2023-05-29T02:01:50;100584.28;;;12.94;70.67
30724;BME280;17473;52.286;20.930;2023-05-29T02:04:17;100589.22;;;12.81;71.20
30724;BME280;17473;52.286;20.930;2023-05-29T02:06:44;100586.53;;;12.80;71.37
30724;BME280;17473;52.286;20.930;2023-05-29T02:09:11;100583.91;;;12.81;71.21
30724;BME280;17473;52.286;20.930;2023-05-29T02:11:38;100585.72;;;12.82;71.45
30724;BME280;17473;52.286;20.930;2023-05-29T02:14:11;100582.13;;;12.80;71.69
30724;BME280;17473;52.286;20.930;2023-05-29T02:16:38;100572.19;;;12.72;72.00
30724;BME280;17473;52.286;20.930;2023-05-29T02:19:08;100561.34;;;12.64;72.75
30724;BME280;17473;52.286;20.930;2023-05-29T02:21:38;100569.34;;;12.65;72.46
30724;BME280;17473;52.286;20.930;2023-05-29T02:24:05;100569.44;;;12.68;72.73
30724;BME280;17473;52.286;20.930;2023-05-29T02:26:32;100572.78;;;12.61;72.83
30724;BME280;17473;52.286;20.930;2023-05-29T02:28:59;100565.91;;;12.68;72.83
30724;BME280;17473;52.286;20.930;2023-05-29T02:31:27;100573.72;;;12.63;72.88
30724;BME280;17473;52.286;20.930;2023-05-29T02:33:54;100563.06;;;12.62;72.91
30724;BME280;17473;52.286;20.930;2023-05-29T02:36:21;100567.47;;;12.61;73.03
30724;BME280;17473;52.286;20.930;2023-05-29T02:38:48;100567.47;;;12.61;73.38
30724;BME280;17473;52.286;20.930;2023-05-29T02:41:15;100564.13;;;12.68;73.39
30724;BME280;17473;52.286;20.930;2023-05-29T02:43:42;100559.06;;;12.76;73.14
30724;BME280;17473;52.286;20.930;2023-05-29T02:46:09;100565.34;;;12.80;72.84
30724;BME280;17473;52.286;20.930;2023-05-29T02:48:37;100557.31;;;12.78;73.10
30724;BME280;17473;52.286;20.930;2023-05-29T02:51:04;100565.41;;;12.83;72.89
30724;BME280;17473;52.286;20.930;2023-05-29T02:53:31;100561.06;;;12.85;72.77
30724;BME280;17473;52.286;20.930;2023-05-29T02:55:58;100555.97;;;12.93;72.62
30724;BME280;17473;52.286;20.930;2023-05-29T02:58:25;100560.19;;;12.86;72.89
30724;BME280;17473;52.286;20.930;2023-05-29T03:00:54;100562.34;;;12.99;72.96
30724;BME280;17473;52.286;20.930;2023-05-29T03:03:21;100563.34;;;13.05;72.72
30724;BME280;17473;52.286;20.930;2023-05-29T03:05:48;100563.00;;;12.92;73.51
30724;BME280;17473;52.286;20.930;2023-05-29T03:08:15;100568.78;;;13.09;73.16
30724;BME280;17473;52.286;20.930;2023-05-29T03:10:42;100567.25;;;13.19;73.20
30724;BME280;17473;52.286;20.930;2023-05-29T03:13:10;100564.91;;;13.31;72.42
30724;BME280;17473;52.286;20.930;2023-05-29T03:15:37;100569.56;;;13.39;72.50
30724;BME280;17473;52.286;20.930;2023-05-29T03:18:05;100567.47;;;13.27;73.02
30724;BME280;17473;52.286;20.930;2023-05-29T03:20:32;100569.47;;;13.36;73.09
30724;BME280;17473;52.286;20.930;2023-05-29T03:22:59;100568.56;;;13.37;72.89
30724;BME280;17473;52.286;20.930;2023-05-29T03:25:26;100575.81;;;13.42;73.32
30724;BME280;17473;52.286;20.930;2023-05-29T03:27:53;100569.19;;;13.60;72.65
30724;BME280;17473;52.286;20.930;2023-05-29T03:30:21;100558.56;;;13.97;71.08
30724;BME280;17473;52.286;20.930;2023-05-29T03:32:48;100575.41;;;14.38;69.90
30724;BME280;17473;52.286;20.930;2023-05-29T03:35:15;100578.88;;;14.77;68.52
30724;BME280;17473;52.286;20.930;2023-05-29T03:37:42;100584.25;;;15.83;64.86
30724;BME280;17473;52.286;20.930;2023-05-29T03:40:10;100576.25;;;17.20;59.71
30724;BME280;17473;52.286;20.930;2023-05-29T03:42:37;100582.94;;;17.78;56.85
30724;BME280;17473;52.286;20.930;2023-05-29T03:45:05;100582.56;;;18.66;54.03
30724;BME280;17473;52.286;20.930;2023-05-29T03:47:32;100575.59;;;19.16;52.07
30724;BME280;17473;52.286;20.930;2023-05-29T03:49:59;100580.94;;;20.23;49.68
30724;BME280;17473;52.286;20.930;2023-05-29T03:52:26;100587.56;;;21.29;46.45
30724;BME280;17473;52.286;20.930;2023-05-29T03:54:53;100575.63;;;21.72;45.23
30724;BME280;17473;52.286;20.930;2023-05-29T03:57:21;100578.53;;;22.36;43.59
30724;BME280;17473;52.286;20.930;2023-05-29T03:59:48;100578.16;;;22.69;42.91
30724;BME280;17473;52.286;20.930;2023-05-29T04:02:15;100576.53;;;23.21;41.68
30724;BME280;17473;52.286;20.930;2023-05-29T04:04:45;100579.34;;;23.69;40.90
30724;BME280;17473;52.286;20.930;2023-05-29T04:07:12;100574.28;;;24.48;39.44
30724;BME280;17473;52.286;20.930;2023-05-29T04:09:39;100583.78;;;24.69;39.03
30724;BME280;17473;52.286;20.930;2023-05-29T04:12:07;100590.63;;;25.25;37.84
30724;BME280;17473;52.286;20.930;2023-05-29T04:14:34;100587.03;;;25.62;37.16
30724;BME280;17473;52.286;20.930;2023-05-29T04:17:01;100596.16;;;26.27;35.93
30724;BME280;17473;52.286;20.930;2023-05-29T04:19:29;100592.34;;;26.97;34.78
30724;BME280;17473;52.286;20.930;2023-05-29T04:21:56;100600.00;;;27.40;34.28
30724;BME280;17473;52.286;20.930;2023-05-29T04:24:23;100595.31;;;27.73;33.48
30724;BME280;17473;52.286;20.930;2023-05-29T04:26:51;100590.50;;;28.57;32.32
30724;BME280;17473;52.286;20.930;2023-05-29T04:29:19;100588.56;;;29.31;31.03
30724;BME280;17473;52.286;20.930;2023-05-29T04:31:46;100592.44;;;29.70;30.47
30724;BME280;17473;52.286;20.930;2023-05-29T04:34:14;100587.16;;;30.28;28.99
30724;BME280;17473;52.286;20.930;2023-05-29T04:36:44;100591.69;;;30.88;28.61
30724;BME280;17473;52.286;20.930;2023-05-29T04:39:11;100592.25;;;31.88;27.22
30724;BME280;17473;52.286;20.930;2023-05-29T04:41:40;100600.28;;;32.08;26.04
30724;BME280;17473;52.286;20.930;2023-05-29T04:44:07;100588.59;;;32.73;26.04
30724;BME280;17473;52.286;20.930;2023-05-29T04:46:36;100590.88;;;32.99;24.81
30724;BME280;17473;52.286;20.930;2023-05-29T04:49:05;100583.53;;;34.08;21.89
30724;BME280;17473;52.286;20.930;2023-05-29T04:51:32;100590.50;;;33.83;23.21
30724;BME280;17473;52.286;20.930;2023-05-29T04:53:59;100588.72;;;33.98;23.94
30724;BME280;17473;52.286;20.930;2023-05-29T04:56:26;100592.09;;;34.32;23.43
30724;BME280;17473;52.286;20.930;2023-05-29T04:58:53;100582.91;;;34.77;22.58
30724;BME280;17473;52.286;20.930;2023-05-29T05:01:21;100574.56;;;35.35;21.95
30724;BME280;17473;52.286;20.930;2023-05-29T05:03:48;100585.06;;;35.83;20.75
30724;BME280;17473;52.286;20.930;2023-05-29T05:06:15;100571.47;;;37.22;19.04
30724;BME280;17473;52.286;20.930;2023-05-29T05:08:44;100575.13;;;36.21;19.89
30724;BME280;17473;52.286;20.930;2023-05-29T05:11:11;100576.34;;;36.03;20.37
30724;BME280;17473;52.286;20.930;2023-05-29T05:13:38;100577.00;;;36.20;20.05
30724;BME280;17473;52.286;20.930;2023-05-29T05:16:05;100576.44;;;36.92;19.49
30724;BME280;17473;52.286;20.930;2023-05-29T05:18:33;100573.72;;;37.41;19.11
30724;BME280;17473;52.286;20.930;2023-05-29T05:21:00;100579.50;;;37.49;19.01
30724;BME280;17473;52.286;20.930;2023-05-29T05:23:27;100576.28;;;37.31;18.52
30724;BME280;17473;52.286;20.930;2023-05-29T05:25:54;100572.25;;;37.24;17.67
30724;BME280;17473;52.286;20.930;2023-05-29T05:28:21;100575.63;;;37.27;17.34
30724;BME280;17473;52.286;20.930;2023-05-29T05:30:49;100576.22;;;37.20;17.73
30724;BME280;17473;52.286;20.930;2023-05-29T05:33:16;100569.63;;;37.09;17.71
30724;BME280;17473;52.286;20.930;2023-05-29T05:35:43;100574.16;;;37.10;17.42
30724;BME280;17473;52.286;20.930;2023-05-29T05:38:10;100570.63;;;37.08;17.96
30724;BME280;17473;52.286;20.930;2023-05-29T05:40:37;100580.34;;;37.38;16.95
30724;BME280;17473;52.286;20.930;2023-05-29T05:43:04;100580.19;;;37.88;16.43
30724;BME280;17473;52.286;20.930;2023-05-29T05:45:32;100586.09;;;38.88;15.83
30724;BME280;17473;52.286;20.930;2023-05-29T05:47:59;100585.47;;;39.51;15.18
30724;BME280;17473;52.286;20.930;2023-05-29T05:50:26;100587.53;;;39.91;15.15
30724;BME280;17473;52.286;20.930;2023-05-29T05:52:53;100586.28;;;39.95;15.03
30724;BME280;17473;52.286;20.930;2023-05-29T05:55:20;100580.84;;;39.72;14.58
30724;BME280;17473;52.286;20.930;2023-05-29T05:57:48;100584.56;;;40.04;14.49
30724;BME280;17473;52.286;20.930;2023-05-29T06:00:15;100577.03;;;40.06;14.76
30724;BME280;17473;52.286;20.930;2023-05-29T06:02:43;100578.84;;;40.17;14.29
30724;BME280;17473;52.286;20.930;2023-05-29T06:05:12;100578.84;;;40.38;14.35
30724;BME280;17473;52.286;20.930;2023-05-29T06:07:39;100586.84;;;41.03;13.62
30724;BME280;17473;52.286;20.930;2023-05-29T06:10:06;100576.13;;;41.20;13.44
30724;BME280;17473;52.286;20.930;2023-05-29T06:12:34;100577.03;;;40.27;14.30
30724;BME280;17473;52.286;20.930;2023-05-29T06:15:02;100581.34;;;40.72;13.72
30724;BME280;17473;52.286;20.930;2023-05-29T06:17:30;100576.00;;;41.41;13.57
30724;BME280;17473;52.286;20.930;2023-05-29T06:19:58;100572.94;;;41.93;13.03
30724;BME280;17473;52.286;20.930;2023-05-29T06:22:26;100572.78;;;41.45;13.40
30724;BME280;17473;52.286;20.930;2023-05-29T06:24:53;100577.69;;;42.40;13.01
30724;BME280;17473;52.286;20.930;2023-05-29T06:27:20;100582.06;;;42.33;13.16
30724;BME280;17473;52.286;20.930;2023-05-29T06:29:48;100577.09;;;43.02;12.59
30724;BME280;17473;52.286;20.930;2023-05-29T06:32:15;100578.81;;;44.30;11.73
30724;BME280;17473;52.286;20.930;2023-05-29T06:34:42;100585.00;;;44.76;11.52
30724;BME280;17473;52.286;20.930;2023-05-29T06:37:10;100582.19;;;43.71;12.47
30724;BME280;17473;52.286;20.930;2023-05-29T06:39:37;100575.47;;;43.27;12.52
30724;BME280;17473;52.286;20.930;2023-05-29T06:42:05;100573.06;;;44.31;11.99
30724;BME280;17473;52.286;20.930;2023-05-29T06:44:32;100570.19;;;43.52;12.06
30724;BME280;17473;52.286;20.930;2023-05-29T06:46:59;100563.66;;;43.80;11.97
30724;BME280;17473;52.286;20.930;2023-05-29T06:49:26;100570.03;;;42.52;13.03
30724;BME280;17473;52.286;20.930;2023-05-29T06:51:53;100578.03;;;43.75;12.35
30724;BME280;17473;52.286;20.930;2023-05-29T06:54:20;100579.03;;;42.64;13.11
30724;BME280;17473;52.286;20.930;2023-05-29T06:56:47;100572.97;;;43.06;12.52
30724;BME280;17473;52.286;20.930;2023-05-29T06:59:34;100572.94;;;41.93;12.97
30724;BME280;17473;52.286;20.930;2023-05-29T07:02:01;100568.16;;;43.08;12.45
30724;BME280;17473;52.286;20.930;2023-05-29T07:04:28;100580.81;;;42.55;12.58
30724;BME280;17473;52.286;20.930;2023-05-29T07:06:55;100580.75;;;42.37;12.58
30724;BME280;17473;52.286;20.930;2023-05-29T07:09:22;100576.50;;;42.33;12.75
30724;BME280;17473;52.286;20.930;2023-05-29T07:11:50;100575.03;;;42.38;12.55
30724;BME280;17473;52.286;20.930;2023-05-29T07:14:17;100581.25;;;42.03;13.02
30724;BME280;17473;52.286;20.930;2023-05-29T07:16:44;100579.09;;;42.44;12.62
30724;BME280;17473;52.286;20.930;2023-05-29T07:19:12;100585.59;;;42.15;12.85
30724;BME280;17473;52.286;20.930;2023-05-29T07:21:48;100584.13;;;42.68;12.52
30724;BME280;17473;52.286;20.930;2023-05-29T07:24:15;100581.69;;;41.98;12.95
30724;BME280;17473;52.286;20.930;2023-05-29T07:26:42;100585.72;;;42.71;12.56
30724;BME280;17473;52.286;20.930;2023-05-29T07:29:10;100589.94;;;42.37;12.77
30724;BME280;17473;52.286;20.930;2023-05-29T07:31:38;100585.19;;;41.51;12.64
30724;BME280;17473;52.286;20.930;2023-05-29T07:34:07;100587.31;;;41.08;13.24
30724;BME280;17473;52.286;20.930;2023-05-29T07:36:34;100597.19;;;40.60;13.20
30724;BME280;17473;52.286;20.930;2023-05-29T07:39:02;100587.38;;;40.97;13.01
30724;BME280;17473;52.286;20.930;2023-05-29T07:41:32;100588.56;;;40.32;13.32
30724;BME280;17473;52.286;20.930;2023-05-29T07:43:59;100592.53;;;40.40;13.82
30724;BME280;17473;52.286;20.930;2023-05-29T07:46:26;100592.25;;;39.79;14.30
30724;BME280;17473;52.286;20.930;2023-05-29T07:48:53;100591.91;;;39.72;14.09
30724;BME280;17473;52.286;20.930;2023-05-29T07:51:20;100578.59;;;39.66;13.90
30724;BME280;17473;52.286;20.930;2023-05-29T07:53:48;100578.69;;;38.54;15.16
30724;BME280;17473;52.286;20.930;2023-05-29T07:56:15;100580.47;;;37.72;15.79
30724;BME280;17473;52.286;20.930;2023-05-29T07:58:43;100583.19;;;38.55;14.55
30724;BME280;17473;52.286;20.930;2023-05-29T08:01:10;100582.88;;;37.77;14.89
30724;BME280;17473;52.286;20.930;2023-05-29T08:03:37;100584.34;;;37.70;15.22
30724;BME280;17473;52.286;20.930;2023-05-29T08:06:05;100587.97;;;36.85;15.56
30724;BME280;17473;52.286;20.930;2023-05-29T08:08:32;100582.94;;;36.65;15.57
30724;BME280;17473;52.286;20.930;2023-05-29T08:10:59;100582.03;;;36.78;15.61
30724;BME280;17473;52.286;20.930;2023-05-29T08:13:29;100583.22;;;37.00;15.78
30724;BME280;17473;52.286;20.930;2023-05-29T08:15:56;100586.03;;;36.48;15.06
30724;BME280;17473;52.286;20.930;2023-05-29T08:18:25;100589.97;;;36.05;15.10
30724;BME280;17473;52.286;20.930;2023-05-29T08:20:53;100587.22;;;36.18;14.97
30724;BME280;17473;52.286;20.930;2023-05-29T08:23:20;100586.75;;;36.11;15.19
30724;BME280;17473;52.286;20.930;2023-05-29T08:25:48;100577.16;;;35.78;15.42
30724;BME280;17473;52.286;20.930;2023-05-29T08:28:15;100586.53;;;35.61;15.92
30724;BME280;17473;52.286;20.930;2023-05-29T08:30:43;100579.53;;;35.15;16.24
30724;BME280;17473;52.286;20.930;2023-05-29T08:33:10;100570.63;;;35.39;15.78
30724;BME280;17473;52.286;20.930;2023-05-29T08:35:37;100580.28;;;35.59;15.83
30724;BME280;17473;52.286;20.930;2023-05-29T08:38:04;100580.69;;;35.25;15.97
30724;BME280;17473;52.286;20.930;2023-05-29T08:40:31;100587.41;;;34.78;16.46
30724;BME280;17473;52.286;20.930;2023-05-29T08:45:42;100586.56;;;33.73;17.03
30724;BME280;17473;52.286;20.930;2023-05-29T08:48:11;100590.06;;;32.81;17.45
30724;BME280;17473;52.286;20.930;2023-05-29T08:50:44;100589.94;;;31.97;17.96
30724;BME280;17473;52.286;20.930;2023-05-29T08:53:15;100591.06;;;31.39;18.59
30724;BME280;17473;52.286;20.930;2023-05-29T08:55:43;100581.50;;;31.67;18.79
30724;BME280;17473;52.286;20.930;2023-05-29T08:58:11;100575.75;;;30.98;20.15
30724;BME280;17473;52.286;20.930;2023-05-29T09:00:39;100583.97;;;32.42;18.42
30724;BME280;17473;52.286;20.930;2023-05-29T09:03:07;100577.81;;;31.49;19.01
30724;BME280;17473;52.286;20.930;2023-05-29T09:05:35;100572.13;;;30.98;18.82
30724;BME280;17473;52.286;20.930;2023-05-29T09:08:08;100573.16;;;31.33;19.04
30724;BME280;17473;52.286;20.930;2023-05-29T09:10:36;100576.69;;;31.35;18.80
30724;BME280;17473;52.286;20.930;2023-05-29T09:13:05;100573.53;;;30.68;19.53
30724;BME280;17473;52.286;20.930;2023-05-29T09:15:33;100574.22;;;31.48;18.65
30724;BME280;17473;52.286;20.930;2023-05-29T09:18:00;100572.06;;;30.40;19.57
30724;BME280;17473;52.286;20.930;2023-05-29T09:20:28;100570.47;;;30.36;19.93
30724;BME280;17473;52.286;20.930;2023-05-29T09:22:59;100572.50;;;30.31;19.71
30724;BME280;17473;52.286;20.930;2023-05-29T09:25:33;100573.19;;;29.95;19.89
30724;BME280;17473;52.286;20.930;2023-05-29T09:28:09;100580.16;;;30.02;20.31
30724;BME280;17473;52.286;20.930;2023-05-29T09:30:44;100573.81;;;30.02;19.90
30724;BME280;17473;52.286;20.930;2023-05-29T09:33:13;100569.59;;;29.51;20.43
30724;BME280;17473;52.286;20.930;2023-05-29T09:35:46;100560.84;;;30.48;20.02
30724;BME280;17473;52.286;20.930;2023-05-29T09:38:16;100571.63;;;29.89;20.59
30724;BME280;17473;52.286;20.930;2023-05-29T09:41:04;100561.78;;;29.44;20.47
30724;BME280;17473;52.286;20.930;2023-05-29T09:43:32;100567.00;;;29.26;21.00
30724;BME280;17473;52.286;20.930;2023-05-29T09:46:01;100560.94;;;29.64;20.80
30724;BME280;17473;52.286;20.930;2023-05-29T09:48:29;100554.47;;;29.22;20.87
30724;BME280;17473;52.286;20.930;2023-05-29T09:50:57;100558.66;;;30.17;20.00
30724;BME280;17473;52.286;20.930;2023-05-29T09:53:27;100566.13;;;29.48;21.10
30724;BME280;17473;52.286;20.930;2023-05-29T09:55:56;100566.31;;;29.21;21.58
30724;BME280;17473;52.286;20.930;2023-05-29T09:58:25;100561.88;;;29.18;20.99
30724;BME280;17473;52.286;20.930;2023-05-29T10:00:52;100554.56;;;29.43;21.03
30724;BME280;17473;52.286;20.930;2023-05-29T10:03:20;100557.56;;;30.21;20.51
30724;BME280;17473;52.286;20.930;2023-05-29T10:05:55;100551.09;;;30.63;20.08
30724;BME280;17473;52.286;20.930;2023-05-29T10:08:26;100548.00;;;30.52;20.57
30724;BME280;17473;52.286;20.930;2023-05-29T10:11:00;100544.22;;;30.54;19.90
30724;BME280;17473;52.286;20.930;2023-05-29T10:13:39;100550.66;;;29.93;20.04
30724;BME280;17473;52.286;20.930;2023-05-29T10:16:11;100551.69;;;29.89;21.03
30724;BME280;17473;52.286;20.930;2023-05-29T10:18:50;100551.19;;;29.58;22.01
30724;BME280;17473;52.286;20.930;2023-05-29T10:21:22;100541.09;;;29.40;21.24
30724;BME280;17473;52.286;20.930;2023-05-29T10:23:51;100546.91;;;29.95;20.71
30724;BME280;17473;52.286;20.930;2023-05-29T10:26:24;100537.75;;;29.33;21.23
30724;BME280;17473;52.286;20.930;2023-05-29T10:32:29;100539.34;;;30.02;21.78
30724;BME280;17473;52.286;20.930;2023-05-29T10:37:59;100536.34;;;30.08;21.62
30724;BME280;17473;52.286;20.930;2023-05-29T10:40:29;100536.22;;;29.48;21.87
30724;BME280;17473;52.286;20.930;2023-05-29T10:42:56;100542.13;;;29.80;21.61
30724;BME280;17473;52.286;20.930;2023-05-29T10:50:46;100541.38;;;28.87;22.49
30724;BME280;17473;52.286;20.930;2023-05-29T10:53:22;100535.84;;;28.67;22.14
30724;BME280;17473;52.286;20.930;2023-05-29T10:55:50;100536.66;;;28.21;22.91
30724;BME280;17473;52.286;20.930;2023-05-29T10:58:23;100530.88;;;28.78;23.24
30724;BME280;17473;52.286;20.930;2023-05-29T11:00:54;100537.53;;;29.15;22.48
30724;BME280;17473;52.286;20.930;2023-05-29T11:03:31;100528.31;;;29.19;22.47
30724;BME280;17473;52.286;20.930;2023-05-29T11:06:06;100524.13;;;29.11;22.96
30724;BME280;17473;52.286;20.930;2023-05-29T11:08:53;100525.56;;;28.27;22.35
30724;BME280;17473;52.286;20.930;2023-05-29T11:11:30;100529.88;;;28.09;22.60
30724;BME280;17473;52.286;20.930;2023-05-29T11:14:05;100521.13;;;28.00;22.70
30724;BME280;17473;52.286;20.930;2023-05-29T11:19:08;100522.50;;;27.61;22.90
30724;BME280;17473;52.286;20.930;2023-05-29T11:22:06;100519.28;;;27.49;23.70
30724;BME280;17473;52.286;20.930;2023-05-29T11:24:36;100510.97;;;27.56;23.96
30724;BME280;17473;52.286;20.930;2023-05-29T11:27:05;100512.22;;;27.45;24.78
30724;BME280;17473;52.286;20.930;2023-05-29T11:29:35;100518.69;;;27.40;25.19
30724;BME280;17473;52.286;20.930;2023-05-29T11:32:06;100521.69;;;27.03;25.16
30724;BME280;17473;52.286;20.930;2023-05-29T11:34:40;100521.66;;;27.32;24.83
30724;BME280;17473;52.286;20.930;2023-05-29T11:37:08;100517.56;;;27.47;24.41
30724;BME280;17473;52.286;20.930;2023-05-29T11:39:38;100522.44;;;27.36;24.90
30724;BME280;17473;52.286;20.930;2023-05-29T11:42:07;100510.25;;;27.22;24.84
30724;BME280;17473;52.286;20.930;2023-05-29T11:44:35;100519.88;;;27.31;24.99
30724;BME280;17473;52.286;20.930;2023-05-29T11:47:03;100510.34;;;27.47;24.93
30724;BME280;17473;52.286;20.930;2023-05-29T11:49:33;100511.59;;;27.36;24.65
30724;BME280;17473;52.286;20.930;2023-05-29T11:52:14;100511.66;;;27.34;24.91
30724;BME280;17473;52.286;20.930;2023-05-29T11:54:44;100502.63;;;26.78;24.95
30724;BME280;17473;52.286;20.930;2023-05-29T11:57:22;100504.81;;;26.65;25.25
30724;BME280;17473;52.286;20.930;2023-05-29T11:59:50;100503.38;;;26.53;25.27
30724;BME280;17473;52.286;20.930;2023-05-29T12:02:25;100504.03;;;26.62;25.37
30724;BME280;17473;52.286;20.930;2023-05-29T12:05:05;100504.34;;;26.81;25.53
30724;BME280;17473;52.286;20.930;2023-05-29T12:07:35;100498.25;;;26.72;26.03
30724;BME280;17473;52.286;20.930;2023-05-29T12:10:14;100504.41;;;26.79;26.19
30724;BME280;17473;52.286;20.930;2023-05-29T12:12:42;100495.81;;;26.65;26.55
30724;BME280;17473;52.286;20.930;2023-05-29T12:15:13;100502.09;;;26.95;26.34
30724;BME280;17473;52.286;20.930;2023-05-29T12:17:41;100497.38;;;27.02;26.07
30724;BME280;17473;52.286;20.930;2023-05-29T12:20:11;100494.59;;;27.03;26.08
30724;BME280;17473;52.286;20.930;2023-05-29T12:22:41;100497.41;;;27.00;26.49
30724;BME280;17473;52.286;20.930;2023-05-29T12:25:21;100484.41;;;27.39;25.59
30724;BME280;17473;52.286;20.930;2023-05-29T12:27:49;100496.69;;;27.22;26.14
30724;BME280;17473;52.286;20.930;2023-05-29T12:30:20;100493.31;;;27.15;25.47
30724;BME280;17473;52.286;20.930;2023-05-29T12:32:59;100488.63;;;27.21;25.02
30724;BME280;17473;52.286;20.930;2023-05-29T12:35:28;100490.69;;;27.39;24.74
30724;BME280;17473;52.286;20.930;2023-05-29T12:38:00;100491.91;;;27.30;24.81
30724;BME280;17473;52.286;20.930;2023-05-29T12:40:29;100488.59;;;27.49;25.11
30724;BME280;17473;52.286;20.930;2023-05-29T12:43:01;100482.25;;;27.22;25.28
30724;BME280;17473;52.286;20.930;2023-05-29T12:45:31;100488.19;;;27.06;25.52
30724;BME280;17473;52.286;20.930;2023-05-29T12:48:03;100483.41;;;27.43;25.14
30724;BME280;17473;52.286;20.930;2023-05-29T12:50:36;100487.69;;;27.48;25.17
30724;BME280;17473;52.286;20.930;2023-05-29T12:53:12;100485.97;;;27.46;25.21
30724;BME280;17473;52.286;20.930;2023-05-29T12:55:43;100476.69;;;27.53;25.09
30724;BME280;17473;52.286;20.930;2023-05-29T12:58:13;100464.34;;;27.17;25.43
30724;BME280;17473;52.286;20.930;2023-05-29T13:00:42;100470.38;;;26.99;25.91
30724;BME280;17473;52.286;20.930;2023-05-29T13:03:10;100468.38;;;27.04;25.76
30724;BME280;17473;52.286;20.930;2023-05-29T13:05:38;100461.00;;;27.09;25.21
30724;BME280;17473;52.286;20.930;2023-05-29T13:08:06;100461.41;;;27.24;25.40
30724;BME280;17473;52.286;20.930;2023-05-29T13:10:35;100458.16;;;27.39;25.15
30724;BME280;17473;52.286;20.930;2023-05-29T13:13:02;100447.59;;;27.58;24.91
30724;BME280;17473;52.286;20.930;2023-05-29T13:15:30;100452.78;;;27.64;24.75